Terminal Aerodrome Forecast
Issued by NWS

Home | Current Version | Previous Version | Text Only | Print | Product List | Glossary On
Versions: 1 2 3 4 5 6 7 8 9 10 11 12 13 14 15
000
FTAK31 PAFA 270323 AAD
TAFATA
TAF AMD
PATA 270323Z 2703/2724 05015G22KT 6SM -TSRA BKN040CB OVC070
     FM270400 06010G20KT P6SM VCTS BKN040CB
     FM270500 06010KT P6SM VCSH SCT040 BKN100
     FM270800 07010KT P6SM SCT080=

USA.gov is the U.S. government's official web portal to all federal, state and local government web resources and services.